Bedford Hills, New York
Current Conditions -  °F | °C
As of 11:56 AM on Sunday 23 Nov 2014 (Local Time) from KHPN Reporting Station
Scattered Clouds Scattered Clouds  
Wind Chill: 50°   Ceiling: Unl
Heat Index: 50°   Visibility: 10mi
Dew Point: 22°   Wind: 3mph
Humidity: 33%   Direction: 320°NW
Pressure: 30.13"   Gusts: NA
Location:  41.24°N, 73.69°W
Report Text: KHPN 231656Z 32003KT 10SM SCT090 10/M06 A3013 RMK AO2 SLP207 T01001056
Loading
Personal Weather Stations






























Interactive Weather Map New forecast layout! Learn more

10-Day Weather Forecast

Advertisements
Track Severe Weather on mobile